createdAt,value
2022-08-12T00:01:01.557Z,26.60
2022-08-12T00:03:41.589Z,26.70
2022-08-12T00:06:22.772Z,26.70
2022-08-12T00:09:03.954Z,26.70
2022-08-12T00:11:44.954Z,26.70
2022-08-12T00:14:25.265Z,26.70
2022-08-12T00:17:06.315Z,26.70
2022-08-12T00:19:46.290Z,26.80
2022-08-12T00:22:27.440Z,26.80
2022-08-12T00:25:15.214Z,26.80
2022-08-12T00:27:55.514Z,26.80
2022-08-12T00:30:36.387Z,26.90
2022-08-12T00:33:16.473Z,26.90
2022-08-12T00:35:57.368Z,26.90
2022-08-12T00:38:38.321Z,27.00
2022-08-12T00:41:21.316Z,27.00
2022-08-12T00:43:49.801Z,27.10
2022-08-12T00:46:36.809Z,27.10
2022-08-12T00:49:04.866Z,27.10
2022-08-12T00:51:45.637Z,27.20
2022-08-12T00:54:13.477Z,27.10
2022-08-12T00:56:42.307Z,27.20
2022-08-12T00:59:10.193Z,27.20
2022-08-12T01:02:00.988Z,27.20
2022-08-12T01:04:40.724Z,27.20
2022-08-12T01:07:21.961Z,27.30
2022-08-12T01:10:03.809Z,27.30
2022-08-12T01:12:32.720Z,27.40
2022-08-12T01:15:01.378Z,27.40
2022-08-12T01:17:30.380Z,27.50
2022-08-12T01:20:00.876Z,27.50
2022-08-12T01:22:38.581Z,27.50
2022-08-12T01:25:12.790Z,27.60
2022-08-12T01:27:41.483Z,27.70
2022-08-12T01:30:13.506Z,27.80
2022-08-12T01:32:43.493Z,27.80
2022-08-12T01:35:15.750Z,27.90
2022-08-12T01:38:03.902Z,28.00
2022-08-12T01:40:37.408Z,28.00
2022-08-12T01:43:10.074Z,28.10
2022-08-12T01:45:43.614Z,28.10
2022-08-12T01:48:23.864Z,28.20
2022-08-12T01:51:07.704Z,28.20
2022-08-12T01:53:50.695Z,28.20
2022-08-12T01:56:26.078Z,28.20
2022-08-12T01:59:12.509Z,28.20
2022-08-12T02:01:41.218Z,28.30
2022-08-12T02:04:40.768Z,28.30
2022-08-12T02:10:50.401Z,28.20
2022-08-12T02:13:33.296Z,28.20
2022-08-12T02:16:30.829Z,28.20
2022-08-12T02:19:22.482Z,28.30
2022-08-12T02:22:10.661Z,28.30
2022-08-12T02:24:39.733Z,28.30
2022-08-12T02:27:10.268Z,28.30
2022-08-12T02:29:38.425Z,28.40
2022-08-12T02:32:09.273Z,28.40
2022-08-12T02:34:38.402Z,28.50
2022-08-12T02:37:11.560Z,28.60
2022-08-12T02:39:41.988Z,28.70
2022-08-12T02:42:11.404Z,28.80
2022-08-12T02:44:45.784Z,28.90
2022-08-12T02:48:00.356Z,28.90
2022-08-12T02:50:04.581Z,29.00
2022-08-12T02:52:34.090Z,29.00
2022-08-12T02:55:28.797Z,29.10
2022-08-12T02:58:06.982Z,29.20
2022-08-12T03:00:40.498Z,29.20
2022-08-12T03:03:13.514Z,29.30
2022-08-12T03:05:54.405Z,29.30
2022-08-12T03:08:31.774Z,29.30
2022-08-12T03:11:21.714Z,29.40
2022-08-12T03:13:58.601Z,29.50
2022-08-12T03:16:28.703Z,29.50
2022-08-12T03:18:57.540Z,29.60
2022-08-12T03:21:52.870Z,29.60
2022-08-12T03:24:29.086Z,29.60
2022-08-12T03:27:00.220Z,29.70
2022-08-12T03:29:43.350Z,29.70
2022-08-12T03:32:35.547Z,29.70
2022-08-12T03:35:40.432Z,29.80
2022-08-12T03:38:00.894Z,29.90
2022-08-12T03:40:46.537Z,29.90
2022-08-12T03:43:29.805Z,30.00
2022-08-12T03:46:12.261Z,30.00
2022-08-12T03:48:53.583Z,30.10
2022-08-12T03:51:33.811Z,30.10
2022-08-12T03:54:14.499Z,30.10
2022-08-12T03:59:48.822Z,30.10
2022-08-12T04:02:16.793Z,30.10
2022-08-12T04:04:49.304Z,30.10
2022-08-12T04:07:18.022Z,30.00
2022-08-12T04:09:47.152Z,30.10
2022-08-12T04:12:36.467Z,30.10
2022-08-12T04:15:09.368Z,30.10
2022-08-12T04:18:07.578Z,30.00
2022-08-12T04:20:28.915Z,30.10
2022-08-12T04:22:57.261Z,30.00
2022-08-12T04:25:28.715Z,30.10
2022-08-12T04:27:56.526Z,30.10
2022-08-12T04:30:50.480Z,30.00
2022-08-12T04:33:22.064Z,30.10
2022-08-12T04:35:50.744Z,30.00
2022-08-12T04:38:20.443Z,29.90
2022-08-12T04:40:48.206Z,29.80
2022-08-12T04:43:59.646Z,29.80
2022-08-12T04:46:04.441Z,29.80
2022-08-12T04:48:33.192Z,29.70
2022-08-12T04:51:01.176Z,29.60
2022-08-12T04:53:29.181Z,29.60
2022-08-12T04:55:57.409Z,29.50
2022-08-12T04:58:29.647Z,29.50
2022-08-12T05:00:59.128Z,29.50
2022-08-12T05:03:46.842Z,29.60
2022-08-12T05:06:26.917Z,29.60
2022-08-12T05:09:01.369Z,29.60
2022-08-12T05:11:30.464Z,29.60
2022-08-12T05:14:02.701Z,29.60
2022-08-12T05:16:34.080Z,29.60
2022-08-12T05:19:05.398Z,29.60
2022-08-12T05:21:41.440Z,29.60
2022-08-12T05:24:14.201Z,29.60
2022-08-12T05:26:51.341Z,29.60
2022-08-12T05:30:07.972Z,29.50
2022-08-12T05:32:20.977Z,29.50
2022-08-12T05:34:49.090Z,29.50
2022-08-12T05:37:18.057Z,29.50
2022-08-12T05:39:51.539Z,29.50
2022-08-12T05:42:32.552Z,29.40
2022-08-12T05:45:02.224Z,29.30
2022-08-12T05:47:52.914Z,29.30
2022-08-12T05:50:21.824Z,29.20
2022-08-12T05:52:49.621Z,29.10
2022-08-12T05:55:24.192Z,29.10
2022-08-12T05:57:56.486Z,29.10
2022-08-12T06:00:26.254Z,29.00
2022-08-12T06:03:01.723Z,29.00
2022-08-12T06:05:32.420Z,28.90
2022-08-12T06:08:06.571Z,28.90
2022-08-12T06:10:41.404Z,28.90
2022-08-12T06:13:11.893Z,28.90
2022-08-12T06:15:43.647Z,28.90
2022-08-12T06:18:14.210Z,28.90
2022-08-12T06:20:47.079Z,28.90
2022-08-12T06:23:16.007Z,28.90
2022-08-12T06:25:51.049Z,28.90
2022-08-12T06:28:20.134Z,29.00
2022-08-12T06:31:08.185Z,29.00
2022-08-12T06:33:55.294Z,29.10
2022-08-12T06:36:30.103Z,29.30
2022-08-12T06:39:02.084Z,29.30
2022-08-12T06:42:04.941Z,29.40
2022-08-12T06:44:33.099Z,29.50
2022-08-12T06:47:01.061Z,29.50
2022-08-12T06:49:35.317Z,29.60
2022-08-12T06:52:04.994Z,29.60
2022-08-12T06:54:33.678Z,29.70
2022-08-12T06:58:06.853Z,29.70
2022-08-12T06:59:59.876Z,29.70
2022-08-12T07:02:27.960Z,29.80
2022-08-12T07:04:55.970Z,29.80
2022-08-12T07:07:26.784Z,29.90
2022-08-12T07:10:04.759Z,29.90
2022-08-12T07:12:34.987Z,29.90
2022-08-12T07:15:03.111Z,29.90
2022-08-12T07:17:36.552Z,29.90
2022-08-12T07:20:10.232Z,30.00
2022-08-12T07:22:54.060Z,30.00
2022-08-12T07:25:41.552Z,30.00
2022-08-12T07:28:29.818Z,29.90
2022-08-12T07:30:59.346Z,29.90
2022-08-12T07:33:46.841Z,29.80
2022-08-12T07:36:15.095Z,29.70
2022-08-12T07:38:49.993Z,29.70
2022-08-12T07:41:26.236Z,29.60
2022-08-12T07:44:02.491Z,29.60
2022-08-12T07:46:37.418Z,29.50
2022-08-12T07:49:07.555Z,29.50
2022-08-12T07:51:36.366Z,29.50
2022-08-12T07:54:10.617Z,29.40
2022-08-12T07:56:39.969Z,29.40
2022-08-12T07:59:09.198Z,29.40
2022-08-12T08:01:40.626Z,29.40
2022-08-12T08:04:20.838Z,29.30
2022-08-12T08:06:49.468Z,29.30
2022-08-12T08:09:21.681Z,29.30
2022-08-12T08:12:03.072Z,29.20
2022-08-12T08:14:32.262Z,29.20
2022-08-12T08:17:01.731Z,29.20
2022-08-12T08:20:03.181Z,29.10
2022-08-12T08:22:41.058Z,29.10
2022-08-12T08:25:35.206Z,29.20
2022-08-12T08:28:05.752Z,29.20
2022-08-12T08:30:33.698Z,29.30
2022-08-12T08:33:02.324Z,29.30
2022-08-12T08:35:46.796Z,29.40
2022-08-12T08:38:27.358Z,29.40
2022-08-12T08:41:13.152Z,29.50
2022-08-12T08:44:06.246Z,29.50
2022-08-12T08:46:38.709Z,29.50
2022-08-12T08:49:07.032Z,29.50
2022-08-12T08:51:38.352Z,29.50
2022-08-12T08:54:09.989Z,29.40
2022-08-12T08:56:50.426Z,29.30
2022-08-12T08:59:22.945Z,29.30
2022-08-12T09:01:50.890Z,29.20
2022-08-12T09:05:11.866Z,29.20
2022-08-12T09:07:17.660Z,29.10
2022-08-12T09:13:00.872Z,29.00
2022-08-12T09:15:35.728Z,29.00
2022-08-12T09:18:08.837Z,29.00
2022-08-12T09:20:40.561Z,29.00
2022-08-12T09:24:00.076Z,29.00
2022-08-12T09:26:03.896Z,29.00
2022-08-12T09:28:37.278Z,29.00
2022-08-12T09:32:04.212Z,29.00
2022-08-12T09:34:26.142Z,28.90
2022-08-12T09:36:57.817Z,29.00
2022-08-12T09:40:06.364Z,29.00
2022-08-12T09:42:57.704Z,29.00
2022-08-12T09:46:06.359Z,28.90
2022-08-12T09:48:20.486Z,29.00
2022-08-12T09:50:52.181Z,29.00
2022-08-12T09:53:36.229Z,29.00
2022-08-12T09:56:59.994Z,28.90
2022-08-12T09:59:00.062Z,28.90
2022-08-12T10:01:34.483Z,28.90
2022-08-12T10:04:06.286Z,28.90
2022-08-12T10:06:36.653Z,28.90
2022-08-12T10:09:23.151Z,28.90
2022-08-12T10:12:11.840Z,28.90
2022-08-12T10:14:50.554Z,28.90
2022-08-12T10:17:25.281Z,28.90
2022-08-12T10:19:53.924Z,29.00
2022-08-12T10:22:39.540Z,29.00
2022-08-12T10:25:21.841Z,29.00
2022-08-12T10:28:03.687Z,29.00
2022-08-12T10:30:39.804Z,29.00
2022-08-12T10:33:19.310Z,29.00
2022-08-12T10:35:59.865Z,29.00
2022-08-12T10:38:38.714Z,29.00
2022-08-12T10:41:22.291Z,28.90
2022-08-12T10:43:55.116Z,28.90
2022-08-12T10:46:30.973Z,29.00
2022-08-12T10:49:05.956Z,29.00
2022-08-12T10:52:04.110Z,28.90
2022-08-12T10:54:37.418Z,28.90
2022-08-12T10:57:05.431Z,28.90
2022-08-12T11:00:31.019Z,28.90
2022-08-12T11:04:31.478Z,28.90
2022-08-12T11:07:07.641Z,28.90
2022-08-12T11:08:34.826Z,28.80
2022-08-12T11:10:51.058Z,28.80
2022-08-12T11:13:20.627Z,28.80
2022-08-12T11:16:21.786Z,28.80
2022-08-12T11:18:55.070Z,28.80
2022-08-12T11:21:51.089Z,28.70
2022-08-12T11:24:30.009Z,28.70
2022-08-12T11:26:59.698Z,28.70
2022-08-12T11:30:06.208Z,28.70
2022-08-12T11:32:18.376Z,28.60
2022-08-12T11:34:52.451Z,28.60
2022-08-12T11:37:24.891Z,28.50
2022-08-12T11:42:39.866Z,28.50
2022-08-12T11:45:17.188Z,28.50
2022-08-12T11:47:45.098Z,28.50
2022-08-12T11:50:19.563Z,28.50
2022-08-12T11:52:55.772Z,28.50
2022-08-12T11:55:29.605Z,28.50
2022-08-12T11:58:17.241Z,28.40
2022-08-12T12:03:43.927Z,28.20
2022-08-12T12:06:17.990Z,28.20
2022-08-12T12:08:51.321Z,28.10
2022-08-12T12:11:21.198Z,28.00
2022-08-12T12:14:06.404Z,27.90
2022-08-12T12:16:39.672Z,27.90
2022-08-12T12:19:10.443Z,27.80
2022-08-12T12:21:47.337Z,27.80
2022-08-12T12:24:21.045Z,27.80
2022-08-12T12:27:00.781Z,27.80
2022-08-12T12:30:17.929Z,27.80
2022-08-12T12:32:28.986Z,27.70
2022-08-12T12:35:17.777Z,27.70
2022-08-12T12:38:04.077Z,27.70
2022-08-12T12:40:43.901Z,27.70
2022-08-12T12:43:12.755Z,27.70
2022-08-12T12:45:44.089Z,27.60
2022-08-12T12:48:14.604Z,27.60
2022-08-12T12:50:51.259Z,27.60
2022-08-12T12:54:08.474Z,27.60
2022-08-12T12:56:34.191Z,27.60
2022-08-12T12:59:04.701Z,27.50
2022-08-12T13:01:38.326Z,27.60
2022-08-12T13:04:13.701Z,27.50
2022-08-12T13:06:43.398Z,27.50
2022-08-12T13:09:13.578Z,27.50
2022-08-12T13:11:44.610Z,27.50
2022-08-12T13:14:27.969Z,27.50
2022-08-12T13:16:58.529Z,27.50
2022-08-12T13:19:37.437Z,27.50
2022-08-12T13:22:21.302Z,27.40
2022-08-12T13:24:55.582Z,27.40
2022-08-12T13:27:35.778Z,27.40
2022-08-12T13:30:11.275Z,27.40
2022-08-12T13:32:57.425Z,27.40
2022-08-12T13:36:02.693Z,27.30
2022-08-12T13:38:14.747Z,27.30
2022-08-12T13:40:59.590Z,27.40
2022-08-12T13:43:41.165Z,27.40
2022-08-12T13:46:12.175Z,27.40
2022-08-12T13:48:44.651Z,27.40
2022-08-12T13:51:13.571Z,27.40
2022-08-12T13:53:57.777Z,27.50
2022-08-12T13:56:34.793Z,27.50
2022-08-12T13:59:09.809Z,27.60
2022-08-12T14:01:41.936Z,27.60
2022-08-12T14:04:11.829Z,27.60
2022-08-12T14:06:43.462Z,27.60
2022-08-12T14:09:15.441Z,27.60
2022-08-12T14:11:51.187Z,27.70
2022-08-12T14:14:31.032Z,27.70
2022-08-12T14:17:05.548Z,27.70
2022-08-12T14:19:48.598Z,27.70
2022-08-12T14:22:25.924Z,27.70
2022-08-12T14:24:55.609Z,27.70
2022-08-12T14:28:06.019Z,27.70
2022-08-12T14:30:29.051Z,27.70
2022-08-12T14:32:58.109Z,27.70
2022-08-12T14:35:25.962Z,27.70
2022-08-12T14:37:56.045Z,27.70
2022-08-12T14:40:28.595Z,27.70
2022-08-12T14:42:58.178Z,27.60
2022-08-12T14:45:45.149Z,27.60
2022-08-12T14:48:15.205Z,27.60
2022-08-12T14:51:09.568Z,27.60
2022-08-12T14:59:24.167Z,27.50
2022-08-12T15:01:54.530Z,27.50
2022-08-12T15:04:29.820Z,27.50
2022-08-12T15:06:58.527Z,27.50
2022-08-12T15:09:32.357Z,27.40
2022-08-12T15:12:03.933Z,27.50
2022-08-12T15:14:32.512Z,27.40
2022-08-12T15:17:03.242Z,27.40
2022-08-12T15:20:27.776Z,27.40
2022-08-12T15:22:39.554Z,27.40
2022-08-12T15:25:07.950Z,27.30
2022-08-12T15:28:05.247Z,27.30
2022-08-12T15:30:32.103Z,27.30
2022-08-12T15:33:00.055Z,27.30
2022-08-12T15:35:50.438Z,27.30
2022-08-12T15:38:20.840Z,27.30
2022-08-12T15:40:50.061Z,27.20
2022-08-12T15:43:35.663Z,27.20
2022-08-12T15:46:07.931Z,27.20
2022-08-12T15:48:46.443Z,27.20
2022-08-12T15:51:27.402Z,27.20
2022-08-12T15:54:34.486Z,27.20
2022-08-12T15:57:06.032Z,27.20
2022-08-12T16:00:00.368Z,27.20
2022-08-12T16:02:29.824Z,27.20
2022-08-12T16:04:59.015Z,27.20
2022-08-12T16:07:29.952Z,27.10
2022-08-12T16:10:05.568Z,27.20
2022-08-12T16:12:43.370Z,27.10
2022-08-12T16:15:24.982Z,27.10
2022-08-12T16:18:10.394Z,27.20
2022-08-12T16:20:46.461Z,27.10
2022-08-12T16:23:36.335Z,27.10
2022-08-12T16:26:14.188Z,27.10
2022-08-12T16:28:42.784Z,27.10
2022-08-12T16:31:14.356Z,27.10
2022-08-12T16:33:59.090Z,27.10
2022-08-12T16:36:30.303Z,27.10
2022-08-12T16:39:01.227Z,27.10
2022-08-12T16:41:39.500Z,27.10
2022-08-12T16:44:08.678Z,27.00
2022-08-12T16:46:37.692Z,27.00
2022-08-12T16:49:09.085Z,27.00
2022-08-12T16:51:46.937Z,27.00
2022-08-12T16:54:18.747Z,27.00
2022-08-12T16:56:55.371Z,27.00
2022-08-12T16:59:30.774Z,26.90
2022-08-12T17:02:00.602Z,27.00
2022-08-12T17:04:29.418Z,27.00
2022-08-12T17:06:57.178Z,26.90
2022-08-12T17:09:25.884Z,26.90
2022-08-12T17:12:02.070Z,26.90
2022-08-12T17:14:36.930Z,26.90
2022-08-12T17:17:26.182Z,26.90
2022-08-12T17:20:33.957Z,26.80
2022-08-12T17:22:57.789Z,26.80
2022-08-12T17:25:26.013Z,26.80
2022-08-12T17:27:59.457Z,26.80
2022-08-12T17:30:30.233Z,26.80
2022-08-12T17:33:06.764Z,26.80
2022-08-12T17:35:37.429Z,26.80
2022-08-12T17:38:14.154Z,26.70
2022-08-12T17:40:43.161Z,26.80
2022-08-12T17:43:57.703Z,26.70
2022-08-12T17:46:03.813Z,26.70
2022-08-12T17:48:38.762Z,26.80
2022-08-12T17:51:15.750Z,26.70
2022-08-12T17:54:10.363Z,26.70
2022-08-12T17:56:38.161Z,26.70
2022-08-12T17:59:07.466Z,26.70
2022-08-12T18:01:36.551Z,26.70
2022-08-12T18:04:21.220Z,26.60
2022-08-12T18:06:55.809Z,26.60
2022-08-12T18:09:36.188Z,26.60
2022-08-12T18:12:24.617Z,26.50
2022-08-12T18:15:08.540Z,26.50
2022-08-12T18:17:39.240Z,26.50
2022-08-12T18:20:15.379Z,26.50
2022-08-12T18:22:45.127Z,26.40
2022-08-12T18:26:13.106Z,26.40
2022-08-12T18:28:29.224Z,26.40
2022-08-12T18:31:02.280Z,26.40
2022-08-12T18:33:43.773Z,26.40
2022-08-12T18:36:22.545Z,26.50
2022-08-12T18:38:59.517Z,26.50
2022-08-12T18:41:34.383Z,26.50
2022-08-12T18:44:08.115Z,26.50
2022-08-12T18:46:58.685Z,26.50
2022-08-12T18:49:31.859Z,26.50
2022-08-12T18:52:04.380Z,26.40
2022-08-12T18:54:35.680Z,26.40
2022-08-12T18:57:19.848Z,26.50
2022-08-12T19:00:00.298Z,26.40
2022-08-12T19:02:33.916Z,26.50
2022-08-12T19:05:11.973Z,26.50
2022-08-12T19:07:49.991Z,26.50
2022-08-12T19:10:29.783Z,26.40
2022-08-12T19:13:10.598Z,26.40
2022-08-12T19:15:43.283Z,26.40
2022-08-12T19:18:11.707Z,26.40
2022-08-12T19:20:40.777Z,26.50
2022-08-12T19:23:16.580Z,26.50
2022-08-12T19:25:59.653Z,26.40
2022-08-12T19:28:36.360Z,26.40
2022-08-12T19:31:56.501Z,26.40
2022-08-12T19:34:46.768Z,26.40
2022-08-12T19:37:09.022Z,26.40
2022-08-12T19:40:10.035Z,26.40
2022-08-12T19:42:28.310Z,26.40
2022-08-12T19:45:00.002Z,26.40
2022-08-12T19:47:28.064Z,26.40
2022-08-12T19:50:11.191Z,26.40
2022-08-12T19:52:39.735Z,26.40
2022-08-12T19:55:11.620Z,26.40
2022-08-12T19:58:03.100Z,26.40
2022-08-12T20:00:34.610Z,26.30
2022-08-12T20:03:04.834Z,26.40
2022-08-12T20:06:06.099Z,26.30
2022-08-12T20:08:31.466Z,26.30
2022-08-12T20:12:15.111Z,26.30
2022-08-12T20:14:00.430Z,26.30
2022-08-12T20:16:53.271Z,26.40
2022-08-12T20:19:18.036Z,26.40
2022-08-12T20:21:45.918Z,26.40
2022-08-12T20:24:14.633Z,26.40
2022-08-12T20:26:43.100Z,26.30
2022-08-12T20:29:12.984Z,26.30
2022-08-12T20:31:42.230Z,26.40
2022-08-12T20:34:12.354Z,26.40
2022-08-12T20:36:45.145Z,26.30
2022-08-12T20:39:34.104Z,26.40
2022-08-12T20:42:07.320Z,26.30
2022-08-12T20:44:40.022Z,26.30
2022-08-12T20:47:19.867Z,26.30
2022-08-12T20:49:55.750Z,26.30
2022-08-12T20:52:29.909Z,26.30
2022-08-12T20:54:59.178Z,26.30
2022-08-12T20:57:37.944Z,26.30
2022-08-12T21:00:09.219Z,26.30
2022-08-12T21:02:40.363Z,26.30
2022-08-12T21:05:21.930Z,26.20
2022-08-12T21:07:52.260Z,26.20
2022-08-12T21:10:21.239Z,26.20
2022-08-12T21:12:51.174Z,26.20
2022-08-12T21:15:24.031Z,26.20
2022-08-12T21:18:09.791Z,26.20
2022-08-12T21:20:52.842Z,26.20
2022-08-12T21:23:22.695Z,26.20
2022-08-12T21:25:52.823Z,26.20
2022-08-12T21:28:31.320Z,26.20
2022-08-12T21:32:34.533Z,26.20
2022-08-12T21:34:08.171Z,26.20
2022-08-12T21:36:43.196Z,26.20
2022-08-12T21:39:35.141Z,26.10
2022-08-12T21:42:06.561Z,26.10
2022-08-12T21:45:43.806Z,26.10
2022-08-12T21:47:23.993Z,26.10
2022-08-12T21:50:02.958Z,26.10
2022-08-12T21:52:36.745Z,26.10
2022-08-12T21:55:08.040Z,26.00
2022-08-12T21:57:51.041Z,26.00
2022-08-12T22:00:33.380Z,26.00
2022-08-12T22:04:01.394Z,26.00
2022-08-12T22:06:30.502Z,26.00
2022-08-12T22:09:05.533Z,26.00
2022-08-12T22:11:42.052Z,26.00
2022-08-12T22:14:18.038Z,26.00
2022-08-12T22:16:51.008Z,26.00
2022-08-12T22:19:21.041Z,26.10
2022-08-12T22:21:54.370Z,26.10
2022-08-12T22:24:26.919Z,26.10
2022-08-12T22:27:31.365Z,26.10
2022-08-12T22:30:08.441Z,26.10
2022-08-12T22:32:55.167Z,26.10
2022-08-12T22:35:56.154Z,26.10
2022-08-12T22:38:24.385Z,26.10
2022-08-12T22:41:01.115Z,26.10
2022-08-12T22:44:00.369Z,26.10
2022-08-12T22:46:37.727Z,26.10
2022-08-12T22:49:09.038Z,26.00
2022-08-12T22:52:00.606Z,26.00
2022-08-12T22:54:34.955Z,26.00
2022-08-12T22:57:05.532Z,25.90
2022-08-12T22:59:55.594Z,25.90
2022-08-12T23:02:28.914Z,25.90
2022-08-12T23:04:59.205Z,25.90
2022-08-12T23:07:36.120Z,26.00
2022-08-12T23:10:17.662Z,25.90
2022-08-12T23:12:58.663Z,26.00
2022-08-12T23:15:26.731Z,26.00
2022-08-12T23:17:59.020Z,26.00
2022-08-12T23:20:27.943Z,26.00
2022-08-12T23:23:02.789Z,26.00
2022-08-12T23:25:54.561Z,26.00
2022-08-12T23:28:35.759Z,26.00
2022-08-12T23:31:06.503Z,26.00
2022-08-12T23:34:00.875Z,26.00
2022-08-12T23:36:39.235Z,26.00
2022-08-12T23:40:15.376Z,26.00
2022-08-12T23:42:17.854Z,26.10
2022-08-12T23:44:52.506Z,26.10
2022-08-12T23:47:22.858Z,26.10
2022-08-12T23:49:57.673Z,26.10
2022-08-12T23:52:33.803Z,26.10
2022-08-12T23:55:23.047Z,26.10
2022-08-12T23:58:21.444Z,26.10
